createdAt,value
2023-02-27T00:01:06.215Z,3.97
2023-02-27T00:07:08.706Z,5.93
2023-02-27T00:13:10.383Z,3.28
2023-02-27T00:19:12.463Z,4.63
2023-02-27T00:25:14.365Z,3.63
2023-02-27T00:31:15.942Z,4.35
2023-02-27T00:37:17.462Z,3.67
2023-02-27T00:43:18.939Z,2.70
2023-02-27T00:49:20.702Z,4.47
2023-02-27T00:55:22.332Z,4.93
2023-02-27T01:01:23.915Z,3.88
2023-02-27T01:07:25.410Z,4.33
2023-02-27T01:13:28.237Z,3.35
2023-02-27T01:19:29.859Z,3.33
2023-02-27T01:25:31.360Z,3.90
2023-02-27T01:31:34.364Z,5.03
2023-02-27T01:37:35.836Z,4.60
2023-02-27T01:43:58.047Z,4.55
2023-02-27T01:49:59.617Z,4.72
2023-02-27T01:56:05.636Z,5.00
2023-02-27T02:02:11.187Z,4.47
2023-02-27T02:08:15.044Z,7.23
2023-02-27T02:14:16.555Z,3.20
2023-02-27T02:20:27.524Z,5.68
2023-02-27T02:26:49.676Z,4.00
2023-02-27T02:33:12.949Z,4.43
2023-02-27T02:39:22.714Z,3.93
2023-02-27T02:45:37.911Z,4.00
2023-02-27T02:51:48.272Z,4.07
2023-02-27T02:57:53.196Z,5.10
2023-02-27T03:03:58.999Z,4.78
2023-02-27T03:10:08.238Z,3.87
2023-02-27T03:16:21.458Z,3.47
2023-02-27T03:22:27.746Z,4.78
2023-02-27T03:28:34.035Z,4.43
2023-02-27T03:34:36.888Z,4.90
2023-02-27T03:41:01.116Z,5.53
2023-02-27T03:47:10.595Z,4.28
2023-02-27T03:53:18.147Z,4.32
2023-02-27T03:59:19.866Z,5.23
2023-02-27T04:05:25.467Z,4.45
2023-02-27T04:11:48.458Z,4.17
2023-02-27T04:17:57.703Z,4.22
2023-02-27T04:24:05.984Z,4.57
2023-02-27T04:30:15.930Z,4.37
2023-02-27T04:36:24.399Z,4.53
2023-02-27T04:42:28.938Z,4.50
2023-02-27T04:48:34.386Z,4.53
2023-02-27T04:55:02.334Z,5.47
2023-02-27T05:01:09.437Z,3.57
2023-02-27T05:07:13.316Z,5.45
2023-02-27T05:13:18.062Z,3.80
2023-02-27T05:19:20.557Z,9.52
2023-02-27T05:25:30.983Z,4.38
2023-02-27T05:31:43.037Z,3.37
2023-02-27T05:37:46.810Z,5.22
2023-02-27T05:43:58.101Z,5.63
2023-02-27T05:50:03.249Z,7.10
2023-02-27T05:56:06.383Z,5.07
2023-02-27T06:02:07.939Z,4.60
2023-02-27T06:08:09.857Z,5.85
2023-02-27T06:14:11.297Z,4.23
2023-02-27T06:20:12.877Z,5.30
2023-02-27T06:26:15.633Z,5.53
2023-02-27T06:32:17.166Z,5.53
2023-02-27T06:38:18.645Z,5.95
2023-02-27T06:44:20.281Z,4.80
2023-02-27T06:50:21.789Z,5.60
2023-02-27T06:56:23.336Z,6.00
2023-02-27T07:02:25.676Z,11.73
2023-02-27T07:08:27.139Z,5.25
2023-02-27T07:14:28.708Z,5.33
2023-02-27T07:20:30.178Z,5.60
2023-02-27T07:26:31.593Z,7.82
2023-02-27T07:32:33.099Z,6.07
2023-02-27T07:38:34.633Z,5.07
2023-02-27T07:44:36.205Z,7.97
2023-02-27T07:50:38.049Z,6.57
2023-02-27T07:56:39.559Z,4.40
2023-02-27T08:02:41.092Z,5.00
2023-02-27T08:08:42.598Z,5.75
2023-02-27T08:14:44.066Z,5.10
2023-02-27T08:20:45.710Z,5.57
2023-02-27T08:26:47.276Z,5.07
2023-02-27T08:32:48.865Z,7.50
2023-02-27T08:38:50.381Z,6.47
2023-02-27T08:44:51.902Z,5.70
2023-02-27T08:50:53.457Z,5.88
2023-02-27T08:56:55.441Z,5.53
2023-02-27T09:02:56.964Z,7.80
2023-02-27T09:08:58.943Z,5.75
2023-02-27T09:15:00.600Z,4.60
2023-02-27T09:21:02.269Z,5.82
2023-02-27T09:27:04.459Z,6.40
2023-02-27T09:33:05.940Z,6.90
2023-02-27T09:39:09.656Z,6.18
2023-02-27T09:45:23.337Z,7.47
2023-02-27T09:51:26.439Z,7.00
2023-02-27T09:57:46.257Z,5.38
2023-02-27T10:03:54.979Z,6.53
2023-02-27T10:10:04.722Z,7.38
2023-02-27T10:16:09.139Z,8.23
2023-02-27T10:22:14.059Z,6.00
2023-02-27T10:28:17.586Z,6.65
2023-02-27T10:34:19.164Z,5.67
2023-02-27T10:40:21.180Z,5.78
2023-02-27T10:46:26.297Z,5.37
2023-02-27T10:52:28.261Z,6.45
2023-02-27T10:58:34.489Z,4.25
2023-02-27T11:04:40.256Z,4.67
2023-02-27T11:10:53.029Z,4.00
2023-02-27T11:16:55.904Z,5.47
2023-02-27T11:23:06.588Z,7.32
2023-02-27T11:29:18.803Z,6.75
2023-02-27T11:35:28.592Z,6.50
2023-02-27T11:41:32.436Z,6.60
2023-02-27T11:47:40.647Z,7.43
2023-02-27T11:53:52.665Z,5.55
2023-02-27T12:00:00.863Z,5.93
2023-02-27T12:06:06.875Z,5.90
2023-02-27T12:12:14.065Z,4.32
2023-02-27T12:18:18.350Z,3.50
2023-02-27T12:24:23.418Z,4.85
2023-02-27T12:30:26.398Z,4.88
2023-02-27T12:36:27.986Z,4.63
2023-02-27T12:42:39.023Z,6.55
2023-02-27T12:48:40.471Z,4.50
2023-02-27T12:55:06.419Z,9.07
2023-02-27T13:01:15.294Z,3.50
2023-02-27T13:07:33.432Z,4.97
2023-02-27T13:13:38.573Z,7.20
2023-02-27T13:19:44.444Z,6.80
2023-02-27T13:25:48.598Z,4.63
2023-02-27T13:31:50.296Z,6.55
2023-02-27T13:38:03.614Z,3.23
2023-02-27T13:44:31.058Z,4.88
2023-02-27T13:50:32.512Z,3.93
2023-02-27T13:56:34.129Z,5.55
2023-02-27T14:02:56.539Z,5.85
2023-02-27T14:09:12.861Z,7.20
2023-02-27T14:15:22.075Z,4.38
2023-02-27T14:21:42.135Z,4.30
2023-02-27T14:27:43.721Z,5.43
2023-02-27T14:33:46.746Z,3.70
2023-02-27T14:39:49.518Z,4.50
2023-02-27T14:45:52.874Z,4.68
2023-02-27T14:51:54.835Z,5.87
2023-02-27T14:58:15.310Z,4.22
2023-02-27T15:04:18.900Z,6.20
2023-02-27T15:10:25.817Z,4.87
2023-02-27T15:16:34.611Z,5.85
2023-02-27T15:22:39.389Z,6.17
2023-02-27T15:28:41.149Z,5.18
2023-02-27T15:34:44.017Z,4.55
2023-02-27T15:40:46.354Z,6.30
2023-02-27T15:46:47.998Z,6.68
2023-02-27T15:52:51.140Z,5.93
2023-02-27T15:59:00.239Z,5.68
2023-02-27T16:05:02.221Z,4.45
2023-02-27T16:11:04.458Z,3.87
2023-02-27T16:17:21.598Z,4.45
2023-02-27T16:23:24.689Z,4.43
2023-02-27T16:29:36.358Z,7.07
2023-02-27T16:35:39.792Z,3.60
2023-02-27T16:41:41.325Z,4.07
2023-02-27T16:47:42.947Z,5.65
2023-02-27T16:53:46.581Z,7.47
2023-02-27T16:59:48.142Z,4.60
2023-02-27T17:05:50.128Z,5.18
2023-02-27T17:11:51.698Z,6.00
2023-02-27T17:17:53.485Z,4.30
2023-02-27T17:23:55.548Z,4.17
2023-02-27T17:29:57.468Z,4.03
2023-02-27T17:36:03.252Z,4.75
2023-02-27T17:42:05.198Z,4.10
2023-02-27T17:48:07.332Z,5.85
2023-02-27T17:54:09.702Z,5.90
2023-02-27T18:00:14.618Z,4.53
2023-02-27T18:06:17.267Z,6.05
2023-02-27T18:12:19.376Z,4.87
2023-02-27T18:18:21.529Z,5.47
2023-02-27T18:24:23.567Z,5.27
2023-02-27T18:30:25.876Z,5.68
2023-02-27T18:36:28.895Z,6.10
2023-02-27T18:42:31.455Z,5.77
2023-02-27T18:48:34.124Z,6.13
2023-02-27T18:54:36.526Z,6.10
2023-02-27T19:00:41.111Z,5.72
2023-02-27T19:06:43.469Z,8.80
2023-02-27T19:12:49.382Z,6.67
2023-02-27T19:18:51.503Z,6.28
2023-02-27T19:24:53.602Z,9.00
2023-02-27T19:30:56.078Z,7.50
2023-02-27T19:36:58.256Z,6.80
2023-02-27T19:43:00.305Z,6.70
2023-02-27T19:49:04.484Z,8.68
2023-02-27T19:55:06.645Z,11.03
2023-02-27T20:01:09.856Z,10.07
2023-02-27T20:07:12.212Z,13.80
2023-02-27T20:13:15.059Z,14.03
2023-02-27T20:19:18.177Z,12.75
2023-02-27T20:25:20.192Z,10.67
2023-02-27T20:31:24.513Z,11.70
2023-02-27T20:37:28.856Z,8.88
2023-02-27T20:43:31.213Z,7.30
2023-02-27T20:49:33.194Z,9.27
2023-02-27T20:55:35.174Z,10.43
2023-02-27T21:01:38.436Z,7.18
2023-02-27T21:07:40.494Z,9.85
2023-02-27T21:13:42.392Z,10.63
2023-02-27T21:19:44.031Z,12.02
2023-02-27T21:25:45.584Z,8.27
2023-02-27T21:31:50.970Z,7.45
2023-02-27T21:37:53.356Z,7.93
2023-02-27T21:44:02.119Z,8.60
2023-02-27T21:50:04.035Z,7.78
2023-02-27T21:56:06.378Z,9.00
2023-02-27T22:02:09.630Z,9.18
2023-02-27T22:08:11.100Z,8.57
2023-02-27T22:14:13.076Z,6.20
2023-02-27T22:20:14.572Z,5.35
2023-02-27T22:26:17.305Z,7.03
2023-02-27T22:32:18.861Z,7.60
2023-02-27T22:38:20.431Z,7.30
2023-02-27T22:44:21.955Z,7.23
2023-02-27T22:50:23.426Z,6.57
2023-02-27T22:56:25.105Z,6.00
2023-02-27T23:02:33.161Z,6.05
2023-02-27T23:08:34.636Z,5.63
2023-02-27T23:14:36.112Z,5.13
2023-02-27T23:20:38.077Z,6.72
2023-02-27T23:26:40.652Z,7.00
2023-02-27T23:32:45.663Z,7.00
2023-02-27T23:38:48.278Z,5.80
2023-02-27T23:45:08.570Z,5.60
2023-02-27T23:51:11.059Z,6.60
2023-02-27T23:57:12.555Z,5.97
